Time;durP1;ratioP1;P1;durP2;ratioP2;P2;SDS_P1;SDS_P2;PMS_P1;PMS_P2;Temp;Humidity;BMP_temperature;BMP_pressure;BME280_temperature;BME280_humidity;BME280_pressure;Samples;Min_cycle;Max_cycle;Signal;HPM_P1;HPM_P2
2023/05/15 00:00:44;;;;;;;11.90;10.20;;;;;;;11.77;95.19;101579.59;6251985;22;20012;-78
2023/05/15 00:03:11;;;;;;;12.63;11.02;;;;;;;11.72;95.99;101585.41;6251929;22;20013;-78
2023/05/15 00:05:38;;;;;;;13.25;10.95;;;;;;;11.70;96.46;101583.94;6251672;22;20031;-78
2023/05/15 00:08:05;;;;;;;14.63;11.02;;;;;;;11.69;97.08;101587.75;6251798;22;20099;-78
2023/05/15 00:10:31;;;;;;;13.13;11.55;;;;;;;11.65;97.30;101583.69;6251819;22;20051;-78
2023/05/15 00:12:58;;;;;;;17.08;12.13;;;;;;;11.61;97.53;101581.13;6251118;22;20024;-78
2023/05/15 00:15:24;;;;;;;17.17;13.05;;;;;;;11.58;98.24;101576.69;6251126;22;20016;-78
2023/05/15 00:17:52;;;;;;;16.40;11.93;;;;;;;11.58;97.95;101570.59;6251700;22;20498;-78
2023/05/15 00:20:19;;;;;;;14.43;11.32;;;;;;;11.57;98.25;101574.44;6251784;22;20040;-79
2023/05/15 00:22:45;;;;;;;18.30;12.05;;;;;;;11.54;98.21;101576.03;6251934;22;20111;-78
2023/05/15 00:25:12;;;;;;;16.05;12.57;;;;;;;11.52;98.42;101573.06;6251618;22;20026;-79
2023/05/15 00:27:38;;;;;;;16.85;11.52;;;;;;;11.48;98.39;101577.72;6251168;22;20024;-78
2023/05/15 00:30:05;;;;;;;15.23;11.82;;;;;;;11.44;98.61;101574.41;6251841;22;20020;-78
2023/05/15 00:32:32;;;;;;;15.52;11.35;;;;;;;11.41;98.96;101571.84;6251724;22;20280;-78
2023/05/15 00:34:58;;;;;;;15.35;11.77;;;;;;;11.39;98.46;101569.59;6249586;22;20020;-78
2023/05/15 00:37:25;;;;;;;22.13;13.60;;;;;;;11.35;98.94;101572.38;6251423;22;20079;-78
2023/05/15 00:39:51;;;;;;;17.90;12.15;;;;;;;11.31;98.85;101568.31;6251675;22;20059;-78
2023/05/15 00:42:19;;;;;;;21.58;12.52;;;;;;;11.29;98.43;101555.41;6249227;22;20021;-78
2023/05/15 00:44:47;;;;;;;18.52;12.52;;;;;;;11.29;98.67;101562.66;6251613;22;20017;-78
2023/05/15 00:47:14;;;;;;;18.20;13.00;;;;;;;11.26;98.54;101556.25;6251779;22;20023;-78
2023/05/15 00:49:42;;;;;;;19.40;13.30;;;;;;;11.22;98.36;101552.94;6249667;22;20446;-78
2023/05/15 00:52:08;;;;;;;19.77;12.93;;;;;;;11.22;98.17;101549.53;6251598;22;20016;-78
2023/05/15 00:54:35;;;;;;;17.20;12.85;;;;;;;11.19;98.32;101545.81;6251330;22;20021;-79
2023/05/15 00:57:05;;;;;;;19.23;13.38;;;;;;;11.18;98.71;101546.25;6248482;22;20032;-78
2023/05/15 00:59:31;;;;;;;21.52;13.75;;;;;;;11.17;98.57;101552.75;6224202;22;20016;-78
2023/05/15 01:01:58;;;;;;;17.35;13.57;;;;;;;11.15;98.37;101542.50;6251496;22;20044;-78
2023/05/15 01:04:24;;;;;;;20.98;12.93;;;;;;;11.14;98.32;101542.91;6251380;22;20796;-79
2023/05/15 01:06:53;;;;;;;22.20;13.73;;;;;;;11.12;98.67;101547.94;6251245;22;20024;-78
2023/05/15 01:09:23;;;;;;;21.55;13.77;;;;;;;11.10;98.22;101548.34;6251117;22;20072;-78
2023/05/15 01:11:53;;;;;;;22.05;14.23;;;;;;;11.08;98.17;101549.94;6223532;22;20027;-78
2023/05/15 01:14:19;;;;;;;23.70;13.70;;;;;;;11.02;98.46;101539.06;6251197;22;20131;-78
2023/05/15 01:16:46;;;;;;;18.95;12.77;;;;;;;10.99;98.42;101543.31;6251294;22;20071;-78
2023/05/15 01:19:13;;;;;;;24.80;14.60;;;;;;;10.98;98.37;101541.81;6251370;22;20013;-78
2023/05/15 01:22:33;;;;;;;20.73;14.20;;;;;;;10.96;98.05;101548.72;6249355;22;20021;-78
2023/05/15 01:25:33;;;;;;;20.77;14.25;;;;;;;10.94;98.33;101535.81;6230691;22;20093;-79
2023/05/15 01:28:08;;;;;;;23.25;13.95;;;;;;;10.93;98.38;101536.25;6224231;22;20533;-78
2023/05/15 01:30:39;;;;;;;19.25;13.98;;;;;;;10.91;98.72;101535.91;6251394;22;20071;-78
2023/05/15 01:33:23;;;;;;;20.98;14.25;;;;;;;10.89;98.50;101536.34;6249633;22;20095;-78
2023/05/15 01:35:58;;;;;;;25.45;14.50;;;;;;;10.87;98.79;101528.03;6249567;22;20025;-78
2023/05/15 01:38:38;;;;;;;20.50;14.30;;;;;;;10.85;98.70;101522.38;6251077;22;20108;-78
2023/05/15 01:41:14;;;;;;;25.85;14.43;;;;;;;10.83;98.96;101519.38;6250490;22;20017;-78
2023/05/15 01:43:44;;;;;;;19.17;14.27;;;;;;;10.78;98.95;101524.50;6249645;22;20017;-78
2023/05/15 01:46:14;;;;;;;20.88;14.35;;;;;;;10.74;99.21;101519.28;6251107;22;20036;-78
2023/05/15 01:48:43;;;;;;;25.60;15.07;;;;;;;10.71;98.67;101522.78;6251117;22;20021;-78
2023/05/15 01:51:13;;;;;;;26.98;15.68;;;;;;;10.68;98.59;101519.03;6250934;22;20024;-77
2023/05/15 01:53:42;;;;;;;25.35;14.57;;;;;;;10.66;98.85;101521.38;6248848;22;20048;-78
2023/05/15 01:56:12;;;;;;;25.58;14.82;;;;;;;10.65;98.72;101519.13;6249866;22;20052;-78
2023/05/15 01:58:40;;;;;;;24.23;15.43;;;;;;;10.62;99.02;101531.34;6223666;22;20055;-77
2023/05/15 02:01:08;;;;;;;21.83;14.55;;;;;;;10.62;99.31;101528.69;6249229;22;20013;-78
2023/05/15 02:03:36;;;;;;;23.75;14.73;;;;;;;10.64;99.33;101528.28;6248975;22;20023;-78
2023/05/15 02:06:04;;;;;;;21.73;14.50;;;;;;;10.63;100.00;101532.84;6274555;22;20057;-78
2023/05/15 02:08:32;;;;;;;24.90;15.32;;;;;;;10.63;100.00;101535.50;6250209;22;20339;-78
2023/05/15 02:11:00;;;;;;;26.00;15.73;;;;;;;10.61;100.00;101540.50;6250907;22;20013;-78
2023/05/15 02:13:27;;;;;;;29.98;16.60;;;;;;;10.60;100.00;101532.94;6274403;22;20471;-78
2023/05/15 02:15:54;;;;;;;31.83;16.80;;;;;;;10.58;100.00;101535.28;6250721;22;20172;-78
2023/05/15 02:18:21;;;;;;;32.33;17.27;;;;;;;10.56;100.00;101538.34;6250770;22;20075;-78
2023/05/15 02:20:48;;;;;;;35.72;18.05;;;;;;;10.56;100.00;101541.03;6250960;22;20088;-78
2023/05/15 02:23:14;;;;;;;30.98;17.65;;;;;;;10.58;100.00;101525.38;6250393;22;20064;-78
2023/05/15 02:25:59;;;;;;;32.60;17.75;;;;;;;10.61;100.00;101539.75;6250753;22;20031;-78
2023/05/15 02:28:45;;;;;;;28.33;16.92;;;;;;;10.61;100.00;101537.09;6250916;22;20021;-79
2023/05/15 02:31:20;;;;;;;25.85;16.77;;;;;;;10.61;100.00;101537.09;6275242;22;20012;-78
2023/05/15 02:34:20;;;;;;;30.67;17.10;;;;;;;10.62;100.00;101547.34;6249142;22;20510;-78
2023/05/15 02:36:50;;;;;;;39.55;19.20;;;;;;;10.60;100.00;101538.28;6250794;22;20008;-78
2023/05/15 02:39:19;;;;;;;32.92;17.95;;;;;;;10.58;100.00;101535.28;6249903;22;20028;-77
2023/05/15 02:41:46;;;;;;;34.58;18.45;;;;;;;10.58;100.00;101530.69;6252273;22;20020;-78
2023/05/15 02:44:16;;;;;;;31.45;18.15;;;;;;;10.59;100.00;101540.19;6250254;22;20017;-78
2023/05/15 02:46:43;;;;;;;34.63;18.23;;;;;;;10.61;100.00;101532.53;6252328;22;20016;-78
2023/05/15 02:49:10;;;;;;;33.03;18.23;;;;;;;10.62;100.00;101533.28;6252138;22;20429;-78
2023/05/15 02:51:38;;;;;;;29.08;18.60;;;;;;;10.63;100.00;101532.09;6250361;22;20466;-77
2023/05/15 02:54:05;;;;;;;37.00;19.05;;;;;;;10.63;100.00;101532.84;6249990;22;20091;-78
2023/05/15 02:56:31;;;;;;;40.25;21.80;;;;;;;10.61;100.00;101523.78;6251708;22;20021;-77
2023/05/15 02:58:58;;;;;;;35.42;19.88;;;;;;;10.61;100.00;101539.75;6250328;22;20029;-77
2023/05/15 03:01:25;;;;;;;43.08;21.15;;;;;;;10.58;100.00;101535.28;6252281;22;20410;-77
2023/05/15 03:03:51;;;;;;;45.40;21.83;;;;;;;10.54;100.00;101527.38;6252088;22;20417;-78
2023/05/15 03:06:18;;;;;;;39.20;20.58;;;;;;;10.53;100.00;101520.56;6252186;22;20013;-77
2023/05/15 03:08:44;;;;;;;36.78;20.65;;;;;;;10.48;100.00;101521.06;6251710;22;20020;-78
2023/05/15 03:11:11;;;;;;;40.47;20.90;;;;;;;10.43;100.00;101518.16;6250659;22;20023;-78
2023/05/15 03:13:37;;;;;;;38.95;21.33;;;;;;;10.42;100.00;101529.97;6250392;22;20021;-78
2023/05/15 03:16:04;;;;;;;36.25;21.25;;;;;;;10.38;100.00;101526.69;6252047;22;20020;-78
2023/05/15 03:18:31;;;;;;;45.38;21.98;;;;;;;10.35;100.00;101521.03;6252066;22;20096;-78
2023/05/15 03:20:57;;;;;;;42.67;22.45;;;;;;;10.35;100.00;101526.34;6251573;22;20160;-78
2023/05/15 03:23:24;;;;;;;41.15;21.50;;;;;;;10.34;100.00;101527.50;6252125;22;20023;-78
2023/05/15 03:25:51;;;;;;;40.40;21.95;;;;;;;10.37;100.00;101519.88;6250267;22;20023;-78
2023/05/15 03:28:17;;;;;;;42.10;22.33;;;;;;;10.37;100.00;101519.88;6250220;22;20147;-77
2023/05/15 03:30:44;;;;;;;39.47;21.90;;;;;;;10.32;100.00;101510.47;6252096;22;20012;-77
2023/05/15 03:33:10;;;;;;;42.78;21.42;;;;;;;10.29;100.00;101516.63;6250130;22;20023;-78
2023/05/15 03:35:37;;;;;;;39.55;21.75;;;;;;;10.26;100.00;101510.22;6249460;22;20046;-77
2023/05/15 03:38:03;;;;;;;39.83;21.98;;;;;;;10.27;100.00;101510.97;6251863;22;20020;-77
2023/05/15 03:40:30;;;;;;;39.20;21.10;;;;;;;10.26;100.00;101523.53;6224815;22;20021;-77
2023/05/15 03:42:57;;;;;;;36.65;20.52;;;;;;;10.25;100.00;101508.72;6251903;22;20024;-77
2023/05/15 03:45:23;;;;;;;38.58;21.42;;;;;;;10.28;100.00;101507.88;6250097;22;20451;-77
2023/05/15 03:47:50;;;;;;;39.67;21.73;;;;;;;10.25;100.00;101500.75;6250062;22;20088;-78
2023/05/15 03:50:17;;;;;;;38.90;19.95;;;;;;;10.22;100.00;101504.22;6251313;22;20012;-78
2023/05/15 03:52:43;;;;;;;30.90;18.70;;;;;;;10.18;100.00;101500.88;6251978;22;20017;-77
2023/05/15 03:55:10;;;;;;;29.65;19.70;;;;;;;10.19;100.00;101509.63;6251309;22;20016;-77
2023/05/15 03:57:40;;;;;;;35.03;18.98;;;;;;;10.16;100.00;101508.53;6251590;22;20399;-77
2023/05/15 04:00:10;;;;;;;41.05;19.17;;;;;;;10.16;100.00;101511.19;6251714;22;20435;-77
2023/05/15 04:02:40;;;;;;;29.08;19.17;;;;;;;10.17;100.00;101517.25;6251892;22;20108;-77
2023/05/15 04:05:07;;;;;;;34.28;19.02;;;;;;;10.17;100.00;101523.34;6251014;22;20427;-77
2023/05/15 04:07:35;;;;;;;35.17;20.17;;;;;;;10.17;100.00;101527.91;6251744;22;20027;-77
2023/05/15 04:10:02;;;;;;;30.83;18.17;;;;;;;10.15;100.00;101517.69;6251424;22;20016;-78
2023/05/15 04:12:32;;;;;;;26.80;17.30;;;;;;;10.17;100.00;101520.69;6251769;22;20067;-77
2023/05/15 04:15:13;;;;;;;24.48;16.27;;;;;;;10.21;100.00;101520.63;6251479;22;20028;-77
2023/05/15 04:17:39;;;;;;;30.88;18.50;;;;;;;10.22;100.00;101530.84;6251847;22;20024;-78
2023/05/15 04:20:07;;;;;;;31.83;18.75;;;;;;;10.26;100.00;101523.53;6249608;22;20013;-78
2023/05/15 04:22:34;;;;;;;27.13;17.88;;;;;;;10.25;100.00;101530.00;6250099;22;20017;-78
2023/05/15 04:25:00;;;;;;;26.45;16.90;;;;;;;10.24;100.00;101533.09;6251757;22;20019;-78
2023/05/15 04:27:27;;;;;;;28.77;16.90;;;;;;;10.24;100.00;101536.50;6249825;22;20032;-78
2023/05/15 04:29:53;;;;;;;28.60;16.70;;;;;;;10.25;100.00;101534.59;6251609;22;20037;-78
2023/05/15 04:32:20;;;;;;;26.17;17.45;;;;;;;10.16;100.00;101527.16;6251685;22;20017;-78
2023/05/15 04:34:47;;;;;;;26.92;17.15;;;;;;;10.13;100.00;101527.25;6250958;22;20024;-77
2023/05/15 04:37:14;;;;;;;33.78;17.70;;;;;;;10.13;100.00;101525.34;6251443;22;20016;-78
2023/05/15 04:39:40;;;;;;;27.30;17.17;;;;;;;10.16;100.00;101531.72;6249976;22;20012;-78
2023/05/15 04:42:06;;;;;;;26.23;18.00;;;;;;;10.17;99.72;101528.66;6249846;22;20040;-77
2023/05/15 04:44:33;;;;;;;25.85;17.40;;;;;;;10.15;99.44;101533.66;6251382;22;20024;-77
2023/05/15 04:47:00;;;;;;;30.38;18.70;;;;;;;10.14;99.31;101531.41;6251806;22;20025;-77
2023/05/15 04:49:27;;;;;;;29.48;17.67;;;;;;;10.10;99.12;101536.81;6249089;22;20024;-78
2023/05/15 04:51:53;;;;;;;30.05;18.45;;;;;;;10.10;99.81;101539.47;6251493;22;20075;-78
2023/05/15 04:54:20;;;;;;;29.23;18.40;;;;;;;10.14;99.53;101534.81;6251194;22;20052;-77
2023/05/15 04:56:46;;;;;;;33.03;20.00;;;;;;;10.13;99.73;101548.53;6251028;22;20071;-78
2023/05/15 04:59:14;;;;;;;34.70;21.00;;;;;;;10.11;99.91;101540.97;6251304;22;20458;-78
2023/05/15 05:01:41;;;;;;;34.80;19.80;;;;;;;10.14;99.25;101544.69;6251031;22;20012;-78
2023/05/15 05:04:07;;;;;;;30.38;20.13;;;;;;;10.15;99.25;101527.56;6249111;22;20067;-78
2023/05/15 05:06:34;;;;;;;33.78;20.13;;;;;;;10.19;99.24;101531.69;6251332;22;20386;-78
2023/05/15 05:09:00;;;;;;;33.65;19.58;;;;;;;10.26;98.88;101530.75;6251473;22;20020;-78
2023/05/15 05:11:27;;;;;;;28.63;18.95;;;;;;;10.28;98.27;101533.75;6251583;22;20090;-78
2023/05/15 05:13:54;;;;;;;29.58;18.65;;;;;;;10.31;98.15;101540.91;6249842;22;20473;-78
2023/05/15 05:16:20;;;;;;;29.25;19.45;;;;;;;10.34;98.38;101545.41;6251746;22;20021;-78
2023/05/15 05:18:47;;;;;;;29.20;19.10;;;;;;;10.37;97.78;101557.13;6250880;22;20456;-79
2023/05/15 05:21:13;;;;;;;27.83;18.50;;;;;;;10.41;97.56;101552.44;6251536;22;20017;-78
2023/05/15 05:23:40;;;;;;;30.98;19.20;;;;;;;10.46;96.95;101549.25;6251316;22;20346;-78
2023/05/15 05:26:06;;;;;;;25.20;17.88;;;;;;;10.56;97.06;101548.25;6251555;22;20071;-78
2023/05/15 05:28:33;;;;;;;30.67;19.23;;;;;;;10.67;96.50;101546.81;6251424;22;20021;-77
2023/05/15 05:31:01;;;;;;;24.67;17.35;;;;;;;10.84;95.63;101544.84;6251643;22;20435;-78
2023/05/15 05:33:27;;;;;;;24.00;15.93;;;;;;;10.91;94.64;101542.00;6250914;22;20091;-78
2023/05/15 05:35:54;;;;;;;23.00;16.95;;;;;;;11.14;94.59;101541.00;6249454;22;20118;-78
2023/05/15 05:38:21;;;;;;;23.73;17.25;;;;;;;11.33;92.82;101540.06;6249927;22;20012;-77
2023/05/15 05:40:47;;;;;;;24.25;16.67;;;;;;;11.43;92.09;101537.53;6249963;22;20409;-77
2023/05/15 05:43:14;;;;;;;19.83;16.45;;;;;;;11.59;91.44;101545.44;6249563;22;20013;-77
2023/05/15 05:45:40;;;;;;;21.88;16.65;;;;;;;11.72;90.10;101534.75;6249812;22;20083;-78
2023/05/15 05:48:07;;;;;;;20.65;16.33;;;;;;;11.60;89.31;101531.66;6251102;22;20064;-78
2023/05/15 05:50:33;;;;;;;24.40;16.60;;;;;;;11.65;89.50;101538.38;6251266;22;20047;-78
2023/05/15 05:53:00;;;;;;;20.92;16.88;;;;;;;11.68;88.90;101546.25;6251289;22;20048;-78
2023/05/15 05:55:27;;;;;;;18.70;15.35;;;;;;;11.59;88.30;101545.44;6249244;22;20064;-78
2023/05/15 05:57:54;;;;;;;20.95;17.27;;;;;;;11.51;88.90;101549.47;6249627;22;20549;-78
2023/05/15 06:00:20;;;;;;;19.60;16.98;;;;;;;11.55;89.10;101553.53;6251360;22;20109;-77
2023/05/15 06:02:47;;;;;;;21.00;16.80;;;;;;;11.80;89.01;101541.38;6251492;22;20347;-78
2023/05/15 06:05:14;;;;;;;21.60;17.23;;;;;;;12.37;88.04;101536.91;6251028;22;20352;-78
2023/05/15 06:07:41;;;;;;;21.73;17.67;;;;;;;12.72;85.26;101535.72;6251307;22;20041;-78
2023/05/15 06:10:08;;;;;;;27.13;17.50;;;;;;;12.67;84.63;101534.34;6251284;22;20359;-78
2023/05/15 06:12:35;;;;;;;19.92;17.83;;;;;;;12.80;84.16;101538.84;6224491;22;20048;-78
2023/05/15 06:15:01;;;;;;;21.38;17.90;;;;;;;12.99;83.40;101532.47;6251748;22;20021;-78
2023/05/15 06:17:28;;;;;;;20.02;17.30;;;;;;;12.97;81.79;101534.81;6252639;22;20023;-78
2023/05/15 06:19:55;;;;;;;19.35;17.20;;;;;;;12.97;82.52;101529.47;6252560;22;20099;-78
2023/05/15 06:22:21;;;;;;;22.52;18.35;;;;;;;13.48;80.66;101524.56;6252534;22;20019;-79
2023/05/15 06:24:48;;;;;;;19.95;16.80;;;;;;;13.94;78.91;101532.72;6252556;22;20013;-78
2023/05/15 06:27:14;;;;;;;22.52;17.42;;;;;;;14.29;76.89;101525.19;6252352;22;20075;-78
2023/05/15 06:29:41;;;;;;;19.17;15.95;;;;;;;14.59;74.79;101527.00;6251868;22;20431;-78
2023/05/15 06:32:07;;;;;;;24.50;16.55;;;;;;;14.63;73.94;101524.91;6250520;22;20078;-78
2023/05/15 06:34:34;;;;;;;17.83;15.85;;;;;;;14.97;73.21;101525.75;6250377;22;20017;-78
2023/05/15 06:37:01;;;;;;;20.65;16.02;;;;;;;15.38;72.48;101524.28;6252566;22;20087;-79
2023/05/15 06:39:27;;;;;;;17.70;15.82;;;;;;;15.68;70.64;101530.56;6252277;22;20019;-78
2023/05/15 06:41:57;;;;;;;16.63;14.93;;;;;;;15.82;68.92;101529.16;6252442;22;20088;-79
2023/05/15 06:44:24;;;;;;;16.80;14.98;;;;;;;15.91;67.79;101540.59;6250231;22;20040;-79
2023/05/15 06:46:51;;;;;;;18.48;15.13;;;;;;;15.92;67.46;101541.34;6252257;22;20017;-79
2023/05/15 06:49:17;;;;;;;18.83;15.50;;;;;;;15.93;67.94;101545.50;6252495;22;20023;-79
2023/05/15 06:51:44;;;;;;;16.25;14.55;;;;;;;15.97;67.19;101536.09;6252118;22;20024;-79
2023/05/15 06:54:11;;;;;;;19.08;15.68;;;;;;;16.11;66.76;101534.63;6252252;22;20091;-79
2023/05/15 06:56:37;;;;;;;22.15;14.95;;;;;;;16.10;65.34;101533.16;6224890;22;20104;-79
2023/05/15 06:59:04;;;;;;;17.17;15.45;;;;;;;16.17;66.25;101543.53;6251622;22;20017;-79
2023/05/15 07:01:30;;;;;;;18.38;14.90;;;;;;;16.28;65.23;101543.03;6252214;22;20023;-79
2023/05/15 07:03:57;;;;;;;17.45;15.55;;;;;;;16.53;65.50;101550.56;6252196;22;20020;-79
2023/05/15 07:06:24;;;;;;;16.27;14.63;;;;;;;16.64;63.63;101545.44;6252065;22;20442;-79
2023/05/15 07:08:51;;;;;;;16.52;14.82;;;;;;;16.74;64.23;101545.38;6252292;22;20442;-79
2023/05/15 07:11:18;;;;;;;19.02;14.23;;;;;;;17.00;63.43;101538.97;6252182;22;20044;-79
2023/05/15 07:13:45;;;;;;;16.42;14.75;;;;;;;17.08;62.85;101535.91;6251299;22;20025;-79
2023/05/15 07:16:11;;;;;;;20.48;15.02;;;;;;;17.19;61.82;101536.81;6251864;22;20024;-79
2023/05/15 07:18:38;;;;;;;18.33;15.27;;;;;;;17.25;62.04;101542.25;6250603;22;20090;-79
2023/05/15 07:21:04;;;;;;;16.00;14.38;;;;;;;17.37;61.03;101543.19;6251981;22;20023;-79
2023/05/15 07:23:31;;;;;;;15.05;13.73;;;;;;;17.61;60.55;101531.03;6251912;22;20024;-79
2023/05/15 07:25:57;;;;;;;15.82;14.32;;;;;;;17.75;60.79;101526.84;6252135;22;20048;-79
2023/05/15 07:28:24;;;;;;;17.88;14.15;;;;;;;17.89;61.11;101536.84;6251476;22;20013;-79
2023/05/15 07:30:51;;;;;;;16.55;14.95;;;;;;;17.99;59.53;101527.41;6252331;22;20024;-79
2023/05/15 07:33:18;;;;;;;15.48;14.00;;;;;;;18.25;58.31;101535.53;6252273;22;20466;-79
2023/05/15 07:35:44;;;;;;;18.05;14.35;;;;;;;18.44;57.53;101548.72;6250186;22;20484;-79
2023/05/15 07:38:11;;;;;;;16.45;14.75;;;;;;;18.54;56.58;101539.25;6252071;22;20363;-79
2023/05/15 07:40:37;;;;;;;15.77;14.18;;;;;;;18.58;56.28;101535.16;6252039;22;20092;-79
2023/05/15 07:43:04;;;;;;;16.67;15.05;;;;;;;18.54;56.56;101533.88;6251370;22;20461;-79
2023/05/15 07:45:30;;;;;;;19.55;14.65;;;;;;;18.41;57.51;101539.63;6250241;22;20442;-79
2023/05/15 07:47:57;;;;;;;19.23;14.70;;;;;;;18.44;58.07;101540.63;6250449;22;20020;-79
2023/05/15 07:50:24;;;;;;;22.08;14.43;;;;;;;18.51;56.75;101543.66;6250135;22;20016;-78
2023/05/15 07:52:51;;;;;;;14.85;13.30;;;;;;;18.54;57.27;101539.25;6251985;22;20025;-79
2023/05/15 07:55:17;;;;;;;15.15;13.55;;;;;;;18.57;56.72;101539.06;6249813;22;20100;-78
2023/05/15 07:57:44;;;;;;;15.65;14.02;;;;;;;18.54;57.18;101536.56;6251249;22;20067;-79
2023/05/15 08:00:11;;;;;;;16.02;14.43;;;;;;;18.66;57.54;101530.09;6251946;22;20063;-78
2023/05/15 08:02:39;;;;;;;21.67;15.93;;;;;;;18.62;56.48;101524.19;6252103;22;20025;-79
2023/05/15 08:05:06;;;;;;;16.80;14.45;;;;;;;18.61;56.42;101528.84;6250536;22;20095;-79
2023/05/15 08:07:34;;;;;;;15.98;13.57;;;;;;;18.80;56.22;101537.31;6250566;22;20024;-79
2023/05/15 08:10:00;;;;;;;16.15;14.50;;;;;;;19.03;56.12;101529.44;6251955;22;20016;-79
2023/05/15 08:12:27;;;;;;;15.68;14.05;;;;;;;19.24;55.38;101530.78;6249596;22;20036;-79
2023/05/15 08:14:55;;;;;;;14.15;12.90;;;;;;;19.67;53.93;101533.53;6251907;22;20370;-78
2023/05/15 08:17:23;;;;;;;13.73;12.48;;;;;;;20.21;52.54;101535.00;6251974;22;20021;-79
2023/05/15 08:19:50;;;;;;;13.05;11.73;;;;;;;20.29;51.77;101533.28;6251850;22;20012;-79
2023/05/15 08:22:16;;;;;;;14.55;13.10;;;;;;;20.41;51.04;101544.88;6251989;22;20021;-79
2023/05/15 08:24:43;;;;;;;13.15;11.95;;;;;;;20.71;51.01;101533.63;6250275;22;20013;-79
2023/05/15 08:27:10;;;;;;;12.82;11.45;;;;;;;20.81;50.86;101532.88;6251150;22;20023;-79
2023/05/15 08:29:37;;;;;;;13.23;11.88;;;;;;;20.57;50.06;101538.03;6224708;22;20016;-79
2023/05/15 08:32:06;;;;;;;13.85;12.55;;;;;;;20.38;50.00;101531.63;6249880;22;20025;-79
2023/05/15 08:34:33;;;;;;;14.80;13.40;;;;;;;20.31;50.45;101527.41;6251442;22;20052;-79
2023/05/15 08:36:59;;;;;;;18.75;14.02;;;;;;;20.20;50.70;101536.22;6249689;22;20020;-79
2023/05/15 08:39:26;;;;;;;14.02;12.73;;;;;;;20.10;51.12;101529.53;6251652;22;20096;-79
2023/05/15 08:42:07;;;;;;;16.52;13.25;;;;;;;19.99;50.97;101529.53;6249679;22;20045;-79
2023/05/15 08:44:34;;;;;;;14.63;13.23;;;;;;;19.88;50.93;101526.78;6250230;22;20438;-79
2023/05/15 08:47:00;;;;;;;13.95;12.55;;;;;;;19.98;51.27;101528.78;6250183;22;20095;-79
2023/05/15 08:49:55;;;;;;;14.77;13.25;;;;;;;19.94;52.46;101522.88;6251577;22;20043;-79
2023/05/15 08:52:24;;;;;;;14.68;13.07;;;;;;;19.94;51.38;101527.53;6250253;22;20335;-79
2023/05/15 08:54:51;;;;;;;14.80;13.35;;;;;;;19.83;50.90;101522.06;6250626;22;20076;-79
2023/05/15 08:57:18;;;;;;;14.45;12.95;;;;;;;19.70;52.14;101525.22;6251528;22;20075;-79
2023/05/15 08:59:45;;;;;;;15.07;13.20;;;;;;;19.62;52.61;101534.97;6251286;22;20474;-80
2023/05/15 09:02:12;;;;;;;15.95;14.18;;;;;;;19.61;52.46;101536.19;6251804;22;20446;-80
2023/05/15 09:04:38;;;;;;;16.40;14.25;;;;;;;19.56;52.91;101534.22;6251790;22;20028;-80
2023/05/15 09:07:05;;;;;;;14.88;13.55;;;;;;;19.82;52.90;101539.50;6251703;22;20070;-80
2023/05/15 09:09:33;;;;;;;15.70;13.73;;;;;;;19.80;51.92;101531.16;6223947;22;20443;-77
2023/05/15 09:12:03;;;;;;;15.40;13.80;;;;;;;19.91;51.76;101534.66;6249742;22;20083;-78
2023/05/15 09:14:29;;;;;;;16.00;13.88;;;;;;;19.82;51.79;101532.16;6249648;22;20016;-78
2023/05/15 09:16:56;;;;;;;14.82;13.25;;;;;;;19.78;53.49;101531.63;6251623;22;20079;-79
2023/05/15 09:19:22;;;;;;;14.77;13.30;;;;;;;19.80;52.60;101537.28;6251646;22;20013;-79
2023/05/15 09:21:49;;;;;;;14.65;13.15;;;;;;;19.77;53.18;101543.66;6224625;22;20024;-79
2023/05/15 09:24:23;;;;;;;15.25;13.70;;;;;;;19.72;53.10;101535.53;6250949;22;20024;-79
2023/05/15 09:27:04;;;;;;;13.82;12.43;;;;;;;20.03;53.50;101537.38;6251643;22;20040;-79
2023/05/15 09:29:31;;;;;;;13.20;12.07;;;;;;;20.18;51.93;101540.63;6249928;22;20410;-79
2023/05/15 09:32:10;;;;;;;14.10;12.32;;;;;;;20.54;52.58;101539.75;6250090;22;20079;-79
2023/05/15 09:34:39;;;;;;;13.10;11.98;;;;;;;20.79;51.25;101546.19;6251714;22;20497;-79
2023/05/15 09:37:08;;;;;;;15.10;12.75;;;;;;;20.41;51.37;101544.88;6251470;22;20021;-80
2023/05/15 09:39:41;;;;;;;12.70;11.40;;;;;;;20.13;52.37;101535.94;6250946;22;20021;-79
2023/05/15 09:42:14;;;;;;;14.88;12.55;;;;;;;20.20;52.60;101532.78;6251583;22;20421;-79
2023/05/15 09:44:42;;;;;;;15.48;12.63;;;;;;;20.23;53.62;101537.22;6251570;22;20036;-79
2023/05/15 09:47:11;;;;;;;14.25;12.85;;;;;;;20.28;53.88;101534.53;6251548;22;20048;-79
2023/05/15 09:49:37;;;;;;;17.58;14.80;;;;;;;19.87;54.76;101533.41;6251347;22;20019;-80
2023/05/15 09:52:08;;;;;;;14.82;13.43;;;;;;;19.89;54.87;101539.06;6251472;22;20075;-79
2023/05/15 09:54:36;;;;;;;16.23;14.45;;;;;;;20.11;54.86;101535.69;6249257;22;20079;-80
2023/05/15 09:57:10;;;;;;;17.73;15.82;;;;;;;20.06;54.60;101537.13;6250939;22;20052;-80
2023/05/15 09:59:45;;;;;;;18.10;16.23;;;;;;;19.80;54.96;101537.28;6249904;22;20366;-79
2023/05/15 10:02:30;;;;;;;18.63;15.82;;;;;;;19.61;56.00;101533.50;6251414;22;20017;-79
2023/05/15 10:04:57;;;;;;;22.42;16.95;;;;;;;19.63;55.22;101539.16;6249754;22;20024;-79
2023/05/15 10:07:32;;;;;;;19.23;17.13;;;;;;;19.58;55.36;101545.28;6249244;22;20743;-79
2023/05/15 10:10:01;;;;;;;19.90;17.92;;;;;;;19.46;56.16;101541.00;6249588;22;20016;-80
2023/05/15 10:12:30;;;;;;;22.10;19.20;;;;;;;19.46;55.58;101541.00;6251138;22;20439;-79
2023/05/15 10:14:58;;;;;;;22.98;19.00;;;;;;;19.33;56.49;101547.56;6249271;22;20417;-79
2023/05/15 10:17:27;;;;;;;23.27;19.58;;;;;;;18.96;57.15;101546.78;6251280;22;20044;-80
2023/05/15 10:19:58;;;;;;;22.92;20.52;;;;;;;18.88;57.36;101551.88;6250741;22;20075;-79
2023/05/15 10:22:29;;;;;;;23.47;20.90;;;;;;;18.62;58.74;101545.75;6223765;22;20083;-79
2023/05/15 10:25:10;;;;;;;28.33;21.08;;;;;;;18.79;58.97;101552.06;6249345;22;20244;-79
2023/05/15 10:27:39;;;;;;;24.50;21.90;;;;;;;18.82;58.82;101553.78;6251145;22;20013;-79
2023/05/15 10:30:08;;;;;;;24.52;21.83;;;;;;;18.85;58.71;101554.78;6250637;22;20017;-79
2023/05/15 10:32:35;;;;;;;27.30;23.02;;;;;;;18.50;59.09;101554.91;6251227;22;20024;-79
2023/05/15 10:35:02;;;;;;;30.90;23.27;;;;;;;18.27;59.70;101562.03;6250994;22;20012;-79
2023/05/15 10:37:29;;;;;;;29.10;23.83;;;;;;;18.29;59.98;101563.03;6248932;22;20013;-79
2023/05/15 10:39:57;;;;;;;35.20;24.10;;;;;;;18.19;61.80;101560.94;6250819;22;20446;-79
2023/05/15 10:42:25;;;;;;;31.67;25.02;;;;;;;18.02;61.58;101563.44;6248961;22;20016;-79
2023/05/15 10:44:58;;;;;;;34.17;26.00;;;;;;;17.80;62.05;101560.47;6250818;22;20481;-79
2023/05/15 10:47:26;;;;;;;38.78;26.95;;;;;;;17.66;62.24;101557.34;6249448;22;20016;-79
2023/05/15 10:49:52;;;;;;;34.75;26.65;;;;;;;17.57;63.26;101560.13;6250829;22;20283;-79
2023/05/15 10:52:19;;;;;;;36.30;26.30;;;;;;;17.59;62.84;101548.91;6250190;22;20009;-79
2023/05/15 10:54:46;;;;;;;33.67;25.58;;;;;;;17.45;64.01;101552.34;6250528;22;20013;-79
2023/05/15 10:57:15;;;;;;;32.22;25.15;;;;;;;17.39;64.60;101562.28;6250736;22;20044;-79
2023/05/15 10:59:43;;;;;;;31.30;24.08;;;;;;;17.34;64.09;101550.97;6251384;22;20017;-79
2023/05/15 11:02:28;;;;;;;28.67;22.42;;;;;;;17.17;64.21;101554.63;6252231;22;20020;-79
2023/05/15 11:04:55;;;;;;;28.95;22.98;;;;;;;17.12;65.37;101555.28;6251718;22;20020;-79
2023/05/15 11:07:25;;;;;;;31.00;21.75;;;;;;;17.23;65.62;101550.81;6252300;22;20013;-79
2023/05/15 11:09:53;;;;;;;25.55;20.13;;;;;;;17.22;65.08;101543.94;6252086;22;20084;-79
2023/05/15 11:12:20;;;;;;;26.88;20.30;;;;;;;17.31;65.22;101551.16;6252177;22;20469;-79